Flight Track Log - Related Links

Times and Time Zones

All times are in EDT time to prevent confusion due to time zone crossing. See the N7586Z flight status page for this flight to view local times or setup timezone preferences in your user account.

Time Position Orientation Groundspeed Altitude Reporting Facility
EDT Latitude Longitude Course Direction KTS MPH feet Rate Location/Type
Sun 12:30:36 PM 43.9450 -91.4620 286° West 206 237 8,000  Level FlightAware ADS-B
Sun 12:31:00 PM 43.9967 -91.7180 286° West  Level Estimated
Sun 12:31:00 PM 43.9530 -91.4920 290° West 210 242 8,600  Level FlightAware ADS-B
Sun 12:31:24 PM 43.9600 -91.5220 288° West 210 242 9,300 1,535 Climbing FlightAware ADS-B
Sun 12:31:43 PM 43.9660 -91.5460 289° West 215 247 9,700 1,527 Climbing FlightAware ADS-B
Sun 12:32:19 PM 43.9780 -91.5940 289° West 222 255 10,700 1,826 Climbing FlightAware ADS-B
Sun 12:32:52 PM 43.9900 -91.6390 290° West 223 257 11,800 1,739 Climbing FlightAware ADS-B
Sun 12:33:28 PM 44.0020 -91.6880 289° West 224 258 12,700 1,583 Climbing FlightAware ADS-B
Sun 12:34:04 PM 44.0140 -91.7380 288° West 226 260 13,700 1,629 Climbing FlightAware ADS-B
Sun 12:34:38 PM 44.0260 -91.7840 290° West 227 261 14,600 1,588 Climbing FlightAware ADS-B
Sun 12:35:12 PM 44.0380 -91.8310 290° West 229 264 15,500 1,521 Climbing FlightAware ADS-B
Sun 12:35:49 PM 44.0500 -91.8820 288° West 231 266 16,400 1,417 Climbing FlightAware ADS-B
Sun 12:36:24 PM 44.0630 -91.9330 290° West 234 269 17,200 1,391 Climbing FlightAware ADS-B
Sun 12:36:58 PM 44.0750 -91.9810 289° West 236 272 18,000 1,371 Climbing FlightAware ADS-B
Sun 12:37:34 PM 44.0880 -92.0330 289° West 240 276 18,800 1,268 Climbing FlightAware ADS-B
Sun 12:38:09 PM 44.1000 -92.0840 288° West 240 276 19,500 1,324 Climbing FlightAware ADS-B
Sun 12:38:42 PM 44.1120 -92.1320 289° West 237 273 20,300 1,463 Climbing FlightAware ADS-B
Sun 12:38:50 PM 44.1133 -92.1372 289° West 238 274 20,500 1,250 Climbing FlightAware ADS-B (LPVM)
Sun 12:39:54 PM 44.1380 -92.2370 289° West 239 275 21,800 1,224 Climbing FlightAware ADS-B
Sun 12:40:28 PM 44.1500 -92.2860 289° West 238 274 22,500 1,200 Climbing FlightAware ADS-B
Sun 12:41:04 PM 44.1620 -92.3380 288° West 235 270 23,200 1,200 Climbing FlightAware ADS-B
Sun 12:41:38 PM 44.1740 -92.3870 289° West 233 268 23,900 1,130 Climbing FlightAware ADS-B
Sun 12:42:13 PM 44.1860 -92.4350 289° West 233 268 24,500 1,000 Climbing FlightAware ADS-B
Sun 12:42:50 PM 44.1990 -92.4880 289° West 233 268 25,100 943 Climbing FlightAware ADS-B
Sun 12:43:23 PM 44.2100 -92.5340 288° West 234 269 25,600 818 Climbing FlightAware ADS-B
Sun 12:43:56 PM 44.2217 -92.5826 289° West 234 269 26,000 381 Climbing FlightAware ADS-B (LPVM)
Sun 12:44:26 PM 44.2314 -92.6233 289° West 255 293 26,000  Level FlightAware ADS-B (LPVM)
Sun 12:45:08 PM 44.2490 -92.6960 289° West 273 314 26,000  Level FlightAware ADS-B
Sun 12:45:09 PM 44.2493 -92.6984 281° West 276 318 26,000  Level FlightAware ADS-B (LPVM)
Sun 12:45:44 PM 44.2640 -92.7590 289° West 284 327 26,000  Level FlightAware ADS-B
Sun 12:46:16 PM 44.2770 -92.8130 289° West 289 333 26,000  Level FlightAware ADS-B
Sun 12:46:49 PM 44.2911 -92.8730 288° West 295 339 26,000  Level FlightAware ADS-B (LPVM)
Sun 12:47:19 PM 44.3041 -92.9277 288° West 299 344 26,000  Level FlightAware ADS-B (LPVM)
Sun 12:48:02 PM 44.3230 -93.0070 288° West 299 344 26,000  Level FlightAware ADS-B
Sun 12:48:10 PM 44.3261 -93.0208 288° West 299 344 26,000  Level FlightAware ADS-B (LPVM)
Sun 12:48:47 PM 44.3423 -93.0891 288° West 300 345 26,000  Level FlightAware ADS-B (LPVM)
Sun 12:49:19 PM 44.3563 -93.1488 288° West 300 345 26,000  Level FlightAware ADS-B (LPVM)
Sun 12:49:50 PM 44.3694 -93.2046 288° West 301 346 26,000  Level FlightAware ADS-B (LPVM)
Sun 12:50:23 PM 44.3830 -93.2650 287° West 299 344 26,000  Level FlightAware ADS-B
Sun 12:50:50 PM 44.3952 -93.3152 289° West 300 345 26,000  Level FlightAware ADS-B (LPVM)
Sun 12:51:31 PM 44.4125 -93.3898 288° West 300 345 26,000  Level FlightAware ADS-B (LPVM)
Sun 12:52:08 PM 44.4280 -93.4580 288° West 297 342 26,000  Level FlightAware ADS-B
Sun 12:52:44 PM 44.4430 -93.5230 288° West 296 341 26,000  Level FlightAware ADS-B
Sun 12:53:17 PM 44.4570 -93.5830 288° West 294 338 26,000  Level FlightAware ADS-B
Sun 12:53:52 PM 44.4720 -93.6470 288° West 290 334 26,000  Level FlightAware ADS-B
Sun 12:54:28 PM 44.4870 -93.7110 288° West 289 333 26,000  Level FlightAware ADS-B
Sun 12:55:01 PM 44.5000 -93.7690 287° West 287 330 26,000  Level FlightAware ADS-B
Sun 12:55:36 PM 44.5140 -93.8320 287° West 285 328 26,000  Level FlightAware ADS-B
Sun 12:56:13 PM 44.5290 -93.8960 288° West 286 329 26,000  Level FlightAware ADS-B
Sun 12:56:49 PM 44.5430 -93.9580 288° West 286 329 26,000  Level FlightAware ADS-B
Sun 12:57:25 PM 44.5570 -94.0220 287° West 283 326 26,000  Level FlightAware ADS-B
Sun 12:57:58 PM 44.5710 -94.0810 288° West 279 321 26,000  Level FlightAware ADS-B
Sun 12:58:32 PM 44.5830 -94.1380 286° West 275 316 26,000  Level FlightAware ADS-B
Sun 12:59:08 PM 44.5970 -94.1990 288° West 271 312 26,000  Level FlightAware ADS-B
Sun 12:59:41 PM 44.6090 -94.2550 287° West 272 313 26,000  Level FlightAware ADS-B
Sun 01:00:17 PM 44.6230 -94.3160 288° West 272 313 26,000  Level FlightAware ADS-B
Sun 01:00:55 PM 44.6370 -94.3780 288° West 270 311 26,000  Level FlightAware ADS-B
Sun 01:01:26 PM 44.6480 -94.4310 286° West 266 306 26,000  Level FlightAware ADS-B
Sun 01:02:03 PM 44.6620 -94.4910 288° West 266 306 26,000  Level FlightAware ADS-B
Sun 01:02:40 PM 44.6750 -94.5530 286° West 266 306 26,000  Level FlightAware ADS-B
Sun 01:03:12 PM 44.6870 -94.6050 288° West 267 307 26,000  Level FlightAware ADS-B
Sun 01:03:46 PM 44.6990 -94.6630 286° West 267 307 26,000  Level FlightAware ADS-B
Sun 01:04:20 PM 44.7120 -94.7200 288° West 269 310 26,000  Level FlightAware ADS-B
Sun 01:05:00 PM 44.7260 -94.7860 287° West 269 310 26,000  Level FlightAware ADS-B
Sun 01:05:31 PM 44.7380 -94.8380 288° West 270 311 26,000  Level FlightAware ADS-B
Sun 01:06:10 PM 44.7520 -94.9040 287° West 271 312 26,000  Level FlightAware ADS-B
Sun 01:06:42 PM 44.7640 -94.9590 287° West 271 312 26,000  Level FlightAware ADS-B
Sun 01:07:16 PM 44.7760 -95.0160 287° West 270 311 26,000  Level FlightAware ADS-B
Sun 01:07:54 PM 44.7900 -95.0800 287° West 272 313 26,000  Level FlightAware ADS-B
Sun 01:08:27 PM 44.8020 -95.1350 287° West 273 314 26,000  Level FlightAware ADS-B
Sun 01:09:04 PM 44.8150 -95.1990 286° West 273 314 26,000  Level FlightAware ADS-B
Sun 01:09:40 PM 44.8280 -95.2610 286° West 273 314 26,000  Level FlightAware ADS-B
Sun 01:10:12 PM 44.8400 -95.3160 287° West 273 314 26,000  Level FlightAware ADS-B
Sun 01:10:49 PM 44.8530 -95.3770 287° West 274 315 26,000  Level FlightAware ADS-B
Sun 01:11:31 PM 44.8670 -95.4430 287° West 275 316 26,000  Level FlightAware ADS-B
Sun 01:12:06 PM 44.8810 -95.5110 286° West 275 316 26,000  Level FlightAware ADS-B
Sun 01:12:41 PM 44.8930 -95.5690 286° West 275 316 26,000  Level FlightAware ADS-B
Sun 01:13:14 PM 44.9050 -95.6270 286° West 275 316 26,000  Level FlightAware ADS-B
Sun 01:13:50 PM 44.9180 -95.6890 287° West 274 315 26,000  Level FlightAware ADS-B
Sun 01:14:22 PM 44.9300 -95.7440 287° West 273 314 26,000  Level FlightAware ADS-B
Sun 01:15:00 PM 44.9430 -95.8080 286° West 271 312 26,000  Level FlightAware ADS-B
Sun 01:15:36 PM 44.9560 -95.8690 287° West 270 311 26,000  Level FlightAware ADS-B
Sun 01:16:12 PM 44.9680 -95.9310 285° West 270 311 26,000  Level FlightAware ADS-B
Sun 01:16:44 PM 44.9790 -95.9840 286° West 269 310 26,000  Level FlightAware ADS-B
Sun 01:17:20 PM 44.9920 -96.0450 287° West 270 311 26,000  Level FlightAware ADS-B
Sun 01:17:52 PM 45.0030 -96.0990 286° West 271 312 26,000  Level FlightAware ADS-B
Sun 01:18:30 PM 45.0160 -96.1640 286° West 271 312 26,000  Level FlightAware ADS-B
Sun 01:19:04 PM 45.0280 -96.2230 286° West 272 313 26,000  Level FlightAware ADS-B
Sun 01:19:40 PM 45.0400 -96.2840 286° West 273 314 26,000  Level FlightAware ADS-B
Sun 01:20:10 PM 45.0500 -96.3340 286° West 272 313 26,000  Level FlightAware ADS-B
Sun 01:20:42 PM 45.0610 -96.3890 286° West 272 313 26,000  Level FlightAware ADS-B
Sun 01:21:19 PM 45.0740 -96.4520 286° West 272 313 26,000  Level FlightAware ADS-B
Sun 01:21:50 PM 45.0840 -96.5030 286° West 270 311 26,000  Level FlightAware ADS-B
Sun 01:22:22 PM 45.0960 -96.5600 287° West 268 308 26,000  Level FlightAware ADS-B
Sun 01:23:02 PM 45.1090 -96.6260 286° West 263 303 26,000  Level FlightAware ADS-B
Sun 01:23:37 PM 45.1200 -96.6830 285° West 262 302 26,000  Level FlightAware ADS-B
Sun 01:24:14 PM 45.1320 -96.7450 285° West 262 302 26,000  Level FlightAware ADS-B
Sun 01:24:50 PM 45.1440 -96.8050 286° West 262 302 26,000 -448 Level FlightAware ADS-B
Sun 01:25:21 PM 45.1540 -96.8560 286° West 278 320 25,500 -1,324 Descending FlightAware ADS-B
Sun 01:25:58 PM 45.1680 -96.9250 286° West 303 349 24,500 -1,726 Descending FlightAware ADS-B
Sun 01:26:34 PM 45.1820 -96.9970 285° West 317 365 23,400 -1,775 Descending FlightAware ADS-B
Sun 01:27:09 PM 45.1950 -97.0650 285° West 323 372 22,400 -1,818 Descending FlightAware ADS-B
Sun 01:27:40 PM 45.2060 -97.1290 284° West 325 374 21,400 -1,216 Descending FlightAware ADS-B
Sun 01:28:23 PM 45.2160 -97.2110 280° West 324 373 20,900 -380 Descending FlightAware ADS-B
Sun 01:28:59 PM 45.2240 -97.2750 280° West 324 373 20,900  Level FlightAware ADS-B
Sun 01:29:35 PM 45.2310 -97.3390 279° West 324 373 20,900  Level FlightAware ADS-B
Sun 01:30:11 PM 45.2380 -97.4040 279° West 324 373 20,900  Level FlightAware ADS-B
Sun 01:30:47 PM 45.2450 -97.4680 279° West 324 373 20,900  Level FlightAware ADS-B
Sun 01:31:23 PM 45.2520 -97.5320 279° West 324 373 20,900 -5,488 Level FlightAware ADS-B
Sun 01:32:09 PM 45.2722 -97.6656 279° West 304 350 13,400 -5,111 Descending Minneapolis Center
Sun 01:33:11 PM 45.2864 -97.7789 280° West 297 342 11,700 -1,887 Descending Minneapolis Center
Sun 01:34:13 PM 45.2958 -97.8825 277° West 277 319 9,500 -2,081 Descending Minneapolis Center
Sun 01:35:15 PM 45.3111 -97.9825 282° West 265 305 7,400 -2,032 Descending Minneapolis Center
Sun 01:37:00 PM 45.3609 -98.1403 286° West  Level Estimated
Sun 01:44:00 PM 45.4333 -98.4167 270° West  Level FlightAware Approximate
Sun 01:45:00 PM 45.4491 -98.4218 270° West  Level Estimated
Sun 01:46:00 PM 45.4491 -98.4218 270° West  Level Estimated

Login

Don't have an account? Register now (free) for customized features, flight alerts, and more!